Time;durP1;ratioP1;P1;durP2;ratioP2;P2;SDS_P1;SDS_P2;PMS_P1;PMS_P2;Temp;Humidity;BMP_temperature;BMP_pressure;BME280_temperature;BME280_humidity;BME280_pressure;Samples;Min_cycle;Max_cycle;Signal;HPM_P1;HPM_P2
2021/12/16 00:04:36;;;;;;;40.70;36.40;;;;;22.30;102238.00;;;;2101109;28;20686;-65
2021/12/16 00:07:48;;;;;;;36.35;32.53;;;;;22.30;102243.00;;;;2095285;28;20678;-65
2021/12/16 00:08:57;;;;;;;36.50;32.70;;;;;22.30;102226.00;;;;2100637;28;20217;-65
2021/12/16 00:11:21;;;;;;;35.53;31.80;;;;;22.30;102224.00;;;;2100237;28;20360;-65
2021/12/16 00:33:11;;;;;;;32.33;29.13;;;;;22.20;102228.00;;;;2100733;28;20276;-65
2021/12/16 00:34:09;;;;;;;32.45;29.15;;;;;22.30;102227.00;;;;2098551;28;21190;-65
2021/12/16 00:35:09;;;;;;;32.10;28.80;;;;;22.20;102230.00;;;;2100511;28;20216;-65
2021/12/16 00:36:10;;;;;;;30.57;27.47;;;;;22.20;102232.00;;;;2100791;28;20280;-65
2021/12/16 00:37:10;;;;;;;31.73;28.43;;;;;22.30;102235.00;;;;2100688;28;20216;-63
2021/12/16 00:38:11;;;;;;;30.57;27.30;;;;;22.30;102235.00;;;;2100877;28;20216;-65
2021/12/16 00:39:14;;;;;;;32.27;28.70;;;;;22.20;102238.00;;;;2100998;28;20261;-66
2021/12/16 00:40:14;;;;;;;31.58;28.27;;;;;22.20;102240.00;;;;2100724;28;20212;-65
2021/12/16 00:41:14;;;;;;;29.80;26.77;;;;;22.20;102231.00;;;;2100830;28;20231;-65
2021/12/16 00:43:41;;;;;;;31.10;27.75;;;;;22.20;102234.00;;;;2096724;28;20276;-65
2021/12/16 00:45:56;;;;;;;30.20;27.13;;;;;22.20;102236.00;;;;2100845;28;20207;-65
2021/12/16 00:47:13;;;;;;;30.25;27.08;;;;;22.20;102231.00;;;;2096366;28;20674;-65
2021/12/16 00:49:50;;;;;;;29.93;26.73;;;;;22.20;102232.00;;;;2100767;28;20212;-65
2021/12/16 00:54:19;;;;;;;27.33;24.42;;;;;22.10;102231.00;;;;2098690;28;20621;-65
2021/12/16 00:55:32;;;;;;;28.77;25.83;;;;;22.20;102232.00;;;;2100598;28;20224;-65
2021/12/16 00:56:33;;;;;;;29.20;26.20;;;;;22.20;102231.00;;;;2097033;28;20219;-65
2021/12/16 00:57:34;;;;;;;30.33;26.37;;;;;22.10;102235.00;;;;2100442;28;20302;-65
2021/12/16 00:58:43;;;;;;;29.63;26.63;;;;;22.10;102230.00;;;;2100733;28;20533;-65
2021/12/16 00:59:47;;;;;;;28.67;25.58;;;;;22.10;102232.00;;;;2100606;28;20242;-65
2021/12/16 01:00:56;;;;;;;29.20;26.02;;;;;22.10;102226.00;;;;2100372;28;20212;-65
2021/12/16 01:02:17;;;;;;;28.90;25.92;;;;;22.10;102235.00;;;;2100749;28;20215;-65
2021/12/16 01:04:27;;;;;;;28.10;25.20;;;;;22.10;102233.00;;;;2097184;28;20608;-66
2021/12/16 01:05:48;;;;;;;28.00;25.30;;;;;22.10;102235.00;;;;2082591;28;20377;-65
2021/12/16 01:09:06;;;;;;;27.27;24.38;;;;;22.10;102240.00;;;;2097211;28;20294;-65
2021/12/16 01:34:16;;;;;;;27.60;24.90;;;;;22.00;102253.00;;;;2100823;28;20705;-66
2021/12/16 01:36:37;;;;;;;25.65;23.05;;;;;22.00;102248.00;;;;2100700;28;20736;-65
2021/12/16 01:49:45;;;;;;;25.77;23.15;;;;;22.00;102269.00;;;;2097404;28;20643;-65
2021/12/16 01:50:51;;;;;;;25.42;22.92;;;;;22.00;102268.00;;;;2100209;28;20577;-64
2021/12/16 01:53:34;;;;;;;26.35;23.75;;;;;22.00;102273.00;;;;2089586;28;20216;-65
2021/12/16 01:55:54;;;;;;;26.77;24.08;;;;;22.00;102270.00;;;;2096900;28;20890;-65
2021/12/16 01:57:06;;;;;;;26.15;23.45;;;;;22.00;102262.00;;;;2100226;28;20679;-65
2021/12/16 01:58:14;;;;;;;25.90;23.20;;;;;22.00;102266.00;;;;2096886;28;20203;-65
2021/12/16 01:59:19;;;;;;;26.17;23.35;;;;;22.00;102262.00;;;;2100487;28;20674;-65
2021/12/16 02:00:27;;;;;;;28.13;24.85;;;;;21.90;102261.00;;;;2100115;28;20223;-65
2021/12/16 02:01:31;;;;;;;27.17;24.30;;;;;21.90;102263.00;;;;2096912;28;20219;-65
2021/12/16 02:03:44;;;;;;;26.88;24.08;;;;;21.90;102270.00;;;;2100825;28;20223;-65
2021/12/16 02:06:24;;;;;;;26.42;23.63;;;;;21.90;102272.00;;;;2100147;28;20583;-65
2021/12/16 02:07:46;;;;;;;24.65;22.30;;;;;21.90;102263.00;;;;2098026;28;20666;-65
2021/12/16 02:08:46;;;;;;;27.23;24.27;;;;;21.90;102276.00;;;;2097026;28;20272;-65
2021/12/16 02:09:46;;;;;;;27.33;24.42;;;;;21.90;102269.00;;;;2100589;28;20570;-65
2021/12/16 02:10:57;;;;;;;28.13;25.23;;;;;21.90;102274.00;;;;2100170;28;20239;-65
2021/12/16 02:12:08;;;;;;;27.10;24.20;;;;;21.90;102278.00;;;;2100426;28;20212;-65
2021/12/16 02:29:23;;;;;;;25.48;22.88;;;;;21.80;102290.00;;;;2066101;28;20220;-65
2021/12/16 02:32:07;;;;;;;25.40;22.73;;;;;21.90;102278.00;;;;2084703;28;20699;-65
2021/12/16 02:35:32;;;;;;;26.20;23.48;;;;;21.80;102289.00;;;;2100506;28;20906;-65
2021/12/16 02:36:42;;;;;;;24.55;22.00;;;;;21.80;102285.00;;;;2096379;28;20581;-65
2021/12/16 02:37:48;;;;;;;26.73;23.92;;;;;21.80;102283.00;;;;2100069;28;20211;-65
2021/12/16 02:38:50;;;;;;;24.85;22.15;;;;;21.80;102287.00;;;;2100289;28;20215;-65
2021/12/16 02:39:51;;;;;;;26.38;23.70;;;;;21.80;102288.00;;;;2100315;28;20219;-65
2021/12/16 02:40:52;;;;;;;25.53;22.93;;;;;21.80;102281.00;;;;2096036;28;20265;-65
2021/12/16 02:41:57;;;;;;;26.80;24.10;;;;;21.80;102286.00;;;;2100069;28;20241;-65
2021/12/16 02:43:06;;;;;;;25.77;22.98;;;;;21.80;102277.00;;;;2100213;28;20226;-64
2021/12/16 02:49:09;;;;;;;26.83;24.23;;;;;21.80;102284.00;;;;2097979;28;20293;-65
2021/12/16 02:50:09;;;;;;;28.00;24.77;;;;;21.80;102287.00;;;;2100419;28;20683;-64
2021/12/16 02:51:11;;;;;;;26.27;23.47;;;;;21.80;102273.00;;;;2100342;28;20560;-65
2021/12/16 02:52:11;;;;;;;28.35;25.38;;;;;21.80;102277.00;;;;2100450;28;20699;-64
2021/12/16 02:53:12;;;;;;;26.77;24.07;;;;;21.80;102295.00;;;;2100570;28;20212;-65
2021/12/16 02:54:12;;;;;;;28.10;25.20;;;;;21.80;102284.00;;;;2100455;28;20573;-65
2021/12/16 02:55:13;;;;;;;26.60;23.80;;;;;21.80;102286.00;;;;2099803;28;20574;-63
2021/12/16 02:56:14;;;;;;;25.35;22.70;;;;;21.80;102285.00;;;;2099618;28;20563;-65
2021/12/16 02:57:14;;;;;;;24.90;22.40;;;;;21.80;102288.00;;;;2099434;28;20302;-65
2021/12/16 02:58:14;;;;;;;24.90;22.30;;;;;21.80;102284.00;;;;2092212;28;20272;-65
2021/12/16 02:59:18;;;;;;;27.10;24.30;;;;;21.80;102292.00;;;;2092708;28;20208;-65
2021/12/16 03:00:18;;;;;;;26.00;23.40;;;;;21.80;102287.00;;;;2092535;28;20296;-65
2021/12/16 03:01:31;;;;;;;26.73;24.03;;;;;21.80;102280.00;;;;2092604;28;20258;-65
2021/12/16 03:02:31;;;;;;;26.40;23.60;;;;;21.80;102277.00;;;;2097988;28;20216;-64
2021/12/16 03:03:34;;;;;;;26.13;22.07;;;;;21.70;102276.00;;;;2101638;28;20703;-65
2021/12/16 03:04:35;;;;;;;25.98;23.38;;;;;21.70;102276.00;;;;2103316;28;20291;-65
2021/12/16 03:05:35;;;;;;;25.07;22.43;;;;;21.80;102278.00;;;;2101960;28;20852;-64
2021/12/16 03:06:36;;;;;;;26.23;23.63;;;;;21.80;102282.00;;;;2101921;28;20231;-65
2021/12/16 03:07:37;;;;;;;26.27;23.67;;;;;21.80;102284.00;;;;2102096;28;20231;-63
2021/12/16 03:08:38;;;;;;;26.37;23.67;;;;;21.80;102287.00;;;;2101905;28;20218;-65
2021/12/16 03:11:03;;;;;;;25.55;23.05;;;;;21.80;102274.00;;;;2097405;28;20272;-65
2021/12/16 03:13:37;;;;;;;24.17;21.75;;;;;21.80;102278.00;;;;2103290;28;20203;-65
2021/12/16 03:14:46;;;;;;;27.75;24.75;;;;;21.80;102289.00;;;;2098585;28;20670;-65
2021/12/16 03:17:17;;;;;;;26.70;24.00;;;;;21.70;102286.00;;;;2101473;28;20265;-65
2021/12/16 03:18:39;;;;;;;25.52;22.83;;;;;21.70;102281.00;;;;2099242;28;20215;-65
2021/12/16 03:19:58;;;;;;;24.63;22.08;;;;;21.70;102278.00;;;;2100411;28;20284;-65
2021/12/16 03:21:04;;;;;;;27.05;24.17;;;;;21.70;102276.00;;;;2098842;28;20352;-65
2021/12/16 03:22:06;;;;;;;25.73;23.23;;;;;21.70;102292.00;;;;2101600;28;20633;-65
2021/12/16 03:23:22;;;;;;;26.17;23.48;;;;;21.70;102280.00;;;;2092403;28;20660;-65
2021/12/16 03:26:02;;;;;;;26.05;23.45;;;;;21.70;102282.00;;;;2094757;28;20215;-65
2021/12/16 03:31:39;;;;;;;25.20;22.65;;;;;21.70;102279.00;;;;2063166;28;20218;-65
2021/12/16 03:34:19;;;;;;;25.58;22.95;;;;;21.70;102285.00;;;;2063742;28;20242;-65
2021/12/16 03:35:29;;;;;;;25.15;22.55;;;;;21.70;102285.00;;;;2071230;28;20287;-65
2021/12/16 03:36:37;;;;;;;24.80;22.17;;;;;21.70;102288.00;;;;2101658;28;20211;-65
2021/12/16 03:37:37;;;;;;;26.60;23.75;;;;;21.70;102288.00;;;;2097578;28;20693;-65
2021/12/16 03:38:38;;;;;;;27.57;24.87;;;;;21.70;102288.00;;;;2101466;28;20213;-65
2021/12/16 03:40:06;;;;;;;26.23;23.53;;;;;21.70;102289.00;;;;2101475;28;20216;-65
2021/12/16 03:41:06;;;;;;;24.50;21.92;;;;;21.70;102301.00;;;;2098282;28;20212;-65
2021/12/16 03:42:07;;;;;;;26.20;23.50;;;;;21.60;102294.00;;;;2101647;28;20223;-65
2021/12/16 03:43:10;;;;;;;26.83;23.93;;;;;21.60;102285.00;;;;2099489;28;20220;-65
2021/12/16 03:44:14;;;;;;;24.83;22.33;;;;;21.70;102287.00;;;;2102451;28;20227;-65
2021/12/16 03:46:45;;;;;;;26.33;23.58;;;;;21.70;102294.00;;;;2100294;28;20216;-65
2021/12/16 03:47:46;;;;;;;26.80;24.10;;;;;21.60;102294.00;;;;2098316;28;20216;-65
2021/12/16 03:48:47;;;;;;;26.23;23.35;;;;;21.60;102296.00;;;;2101262;28;20218;-65
2021/12/16 03:49:48;;;;;;;27.00;24.20;;;;;21.60;102292.00;;;;2101422;28;20709;-65
2021/12/16 03:50:48;;;;;;;25.98;23.48;;;;;21.60;102299.00;;;;2092133;28;20204;-65
2021/12/16 03:52:06;;;;;;;26.50;23.90;;;;;21.60;102292.00;;;;2092464;28;20231;-65
2021/12/16 03:53:06;;;;;;;29.85;26.75;;;;;21.60;102294.00;;;;2098354;28;21229;-65
2021/12/16 03:54:13;;;;;;;26.57;23.87;;;;;21.60;102306.00;;;;2101276;28;20226;-65
2021/12/16 03:55:14;;;;;;;28.17;25.27;;;;;21.60;102295.00;;;;2101281;28;20306;-65
2021/12/16 03:56:14;;;;;;;27.60;24.80;;;;;21.60;102300.00;;;;2101182;28;20597;-65
2021/12/16 03:57:14;;;;;;;27.03;24.30;;;;;21.70;102298.00;;;;2101013;28;20216;-65
2021/12/16 03:58:15;;;;;;;28.27;25.47;;;;;21.70;102306.00;;;;2104935;28;20310;-65
2021/12/16 03:59:18;;;;;;;29.20;26.27;;;;;21.60;102296.00;;;;2101231;28;20264;-65
2021/12/16 04:00:22;;;;;;;28.77;25.88;;;;;21.60;102299.00;;;;2100815;28;20218;-65
2021/12/16 04:01:24;;;;;;;28.05;25.20;;;;;21.60;102309.00;;;;2100995;28;20552;-65
2021/12/16 04:02:30;;;;;;;27.02;24.13;;;;;21.60;102302.00;;;;2101282;28;20215;-65
2021/12/16 04:03:30;;;;;;;24.75;22.35;;;;;21.60;102302.00;;;;2101295;28;20204;-65
2021/12/16 04:04:31;;;;;;;27.70;24.90;;;;;21.60;102305.00;;;;2091024;28;20679;-65
2021/12/16 04:05:31;;;;;;;27.43;24.50;;;;;21.60;102303.00;;;;2092745;28;20758;-65
2021/12/16 04:06:33;;;;;;;27.60;23.90;;;;;21.70;102300.00;;;;2092703;28;20209;-65
2021/12/16 04:07:33;;;;;;;26.65;23.95;;;;;21.60;102307.00;;;;2101453;28;20232;-65
2021/12/16 04:08:34;;;;;;;27.13;24.53;;;;;21.60;102295.00;;;;2101439;28;20211;-65
2021/12/16 04:09:34;;;;;;;27.93;24.97;;;;;21.60;102311.00;;;;2091377;28;20262;-65
2021/12/16 04:11:01;;;;;;;26.30;23.60;;;;;21.60;102313.00;;;;2092325;28;20205;-65
2021/12/16 04:12:09;;;;;;;27.77;24.90;;;;;21.60;102312.00;;;;2099398;28;20238;-65
2021/12/16 04:13:12;;;;;;;28.20;24.70;;;;;21.60;102313.00;;;;2101183;28;20216;-65
2021/12/16 04:14:13;;;;;;;27.17;24.27;;;;;21.60;102304.00;;;;2100988;28;20207;-65
2021/12/16 04:15:13;;;;;;;28.57;25.50;;;;;21.60;102300.00;;;;2101149;28;20360;-65
2021/12/16 04:16:14;;;;;;;27.70;24.80;;;;;21.50;102315.00;;;;2101050;28;20218;-65
2021/12/16 04:17:15;;;;;;;26.83;24.10;;;;;21.60;102310.00;;;;2101118;28;20344;-65
2021/12/16 04:18:16;;;;;;;25.85;23.15;;;;;21.60;102301.00;;;;2092663;28;20266;-65
2021/12/16 04:19:21;;;;;;;27.80;24.90;;;;;21.60;102304.00;;;;2093481;28;20302;-65
2021/12/16 04:20:21;;;;;;;27.17;24.23;;;;;21.60;102302.00;;;;2092917;28;20276;-64
2021/12/16 04:21:25;;;;;;;25.73;23.23;;;;;21.60;102300.00;;;;2089825;28;20238;-64
2021/12/16 04:22:31;;;;;;;28.70;25.55;;;;;21.60;102301.00;;;;2102185;28;20260;-64
2021/12/16 04:23:32;;;;;;;26.27;23.60;;;;;21.60;102306.00;;;;2100522;28;20354;-65
2021/12/16 04:24:32;;;;;;;26.63;23.97;;;;;21.50;102312.00;;;;2102323;28;20249;-64
2021/12/16 04:25:35;;;;;;;27.60;24.60;;;;;21.60;102312.00;;;;2101534;28;20214;-65
2021/12/16 04:26:36;;;;;;;27.17;23.98;;;;;21.50;102308.00;;;;2098839;28;20253;-64
2021/12/16 04:27:36;;;;;;;27.83;25.00;;;;;21.60;102302.00;;;;2102403;28;20773;-65
2021/12/16 04:28:37;;;;;;;28.50;25.50;;;;;21.50;102311.00;;;;2102373;28;20802;-64
2021/12/16 04:29:37;;;;;;;28.57;25.67;;;;;21.50;102311.00;;;;2102103;28;20212;-64
2021/12/16 04:30:37;;;;;;;25.93;23.10;;;;;21.60;102314.00;;;;2102086;28;20212;-65
2021/12/16 04:31:38;;;;;;;25.90;23.17;;;;;21.60;102323.00;;;;2102195;28;20707;-64
2021/12/16 04:32:39;;;;;;;28.17;25.20;;;;;21.50;102325.00;;;;2100371;28;20688;-64
2021/12/16 04:33:39;;;;;;;26.37;23.57;;;;;21.50;102314.00;;;;2102172;28;20215;-65
2021/12/16 04:34:40;;;;;;;26.97;24.07;;;;;21.60;102318.00;;;;2101980;28;20227;-65
2021/12/16 04:35:40;;;;;;;27.90;25.00;;;;;21.60;102322.00;;;;2101774;28;20233;-64
2021/12/16 04:36:40;;;;;;;26.77;23.90;;;;;21.50;102326.00;;;;2092895;28;20212;-64
2021/12/16 04:37:41;;;;;;;27.00;24.20;;;;;21.50;102327.00;;;;2093207;28;20732;-64
2021/12/16 04:38:41;;;;;;;26.97;24.00;;;;;21.60;102330.00;;;;2101662;28;20204;-65
2021/12/16 04:39:43;;;;;;;27.73;24.83;;;;;21.50;102318.00;;;;2093442;28;20810;-64
2021/12/16 04:40:45;;;;;;;25.60;22.70;;;;;21.50;102320.00;;;;2094010;28;20252;-64
2021/12/16 04:41:46;;;;;;;29.00;25.85;;;;;21.50;102318.00;;;;2102899;28;20287;-64
2021/12/16 04:42:47;;;;;;;28.67;25.67;;;;;21.50;102319.00;;;;2101736;28;20216;-65
2021/12/16 04:43:49;;;;;;;25.93;23.20;;;;;21.50;102328.00;;;;2101741;28;20211;-65
2021/12/16 04:44:50;;;;;;;27.35;24.38;;;;;21.50;102328.00;;;;2089151;28;20472;-65
2021/12/16 04:45:50;;;;;;;27.10;24.20;;;;;21.50;102327.00;;;;2092624;28;20271;-65
2021/12/16 04:46:51;;;;;;;27.50;23.80;;;;;21.50;102325.00;;;;2101360;28;20275;-65
2021/12/16 04:47:51;;;;;;;26.80;24.00;;;;;21.50;102319.00;;;;2101680;28;20269;-65
2021/12/16 04:48:53;;;;;;;28.63;24.90;;;;;21.50;102321.00;;;;2092669;28;20220;-65
2021/12/16 04:49:54;;;;;;;26.88;24.17;;;;;21.50;102332.00;;;;2093124;28;20221;-64
2021/12/16 04:50:55;;;;;;;27.33;24.33;;;;;21.50;102325.00;;;;2100844;28;20275;-65
2021/12/16 04:51:57;;;;;;;27.40;24.47;;;;;21.50;102323.00;;;;2100699;28;20326;-65
2021/12/16 04:52:57;;;;;;;27.17;24.15;;;;;21.50;102322.00;;;;2101215;28;20269;-65
2021/12/16 04:53:57;;;;;;;28.40;25.27;;;;;21.50;102324.00;;;;2101309;28;20264;-65
2021/12/16 04:54:58;;;;;;;27.60;24.57;;;;;21.50;102324.00;;;;2101289;28;20211;-65
2021/12/16 04:55:58;;;;;;;25.57;22.90;;;;;21.50;102317.00;;;;2101135;28;20207;-65
2021/12/16 04:56:59;;;;;;;26.50;23.80;;;;;21.50;102305.00;;;;2100316;28;20219;-64
2021/12/16 04:57:59;;;;;;;27.73;24.67;;;;;21.50;102323.00;;;;2091757;28;20212;-65
2021/12/16 04:59:00;;;;;;;27.10;24.20;;;;;21.50;102312.00;;;;2091707;28;20244;-64
2021/12/16 05:00:00;;;;;;;25.87;23.10;;;;;21.50;102310.00;;;;2100685;28;20238;-65
2021/12/16 05:01:01;;;;;;;26.53;23.63;;;;;21.50;102314.00;;;;2100267;28;20215;-65
2021/12/16 05:02:05;;;;;;;27.50;24.50;;;;;21.50;102314.00;;;;2100652;28;20203;-65
2021/12/16 05:03:05;;;;;;;27.42;24.67;;;;;21.50;102315.00;;;;2100674;28;20457;-65
2021/12/16 05:04:06;;;;;;;27.97;24.97;;;;;21.50;102315.00;;;;2100587;28;20207;-65
2021/12/16 05:05:06;;;;;;;26.50;23.67;;;;;21.50;102315.00;;;;2100803;28;20216;-65
2021/12/16 05:06:07;;;;;;;27.67;24.70;;;;;21.50;102310.00;;;;2100918;28;20242;-65
2021/12/16 05:07:07;;;;;;;26.13;23.43;;;;;21.50;102297.00;;;;2100852;28;20226;-65
2021/12/16 05:08:08;;;;;;;28.77;25.33;;;;;21.50;102294.00;;;;2100958;28;20556;-65
2021/12/16 05:09:10;;;;;;;26.63;23.87;;;;;21.50;102314.00;;;;2100809;28;20196;-65
2021/12/16 05:10:12;;;;;;;27.85;24.15;;;;;21.50;102305.00;;;;2100727;28;20266;-65
2021/12/16 05:11:14;;;;;;;26.77;24.08;;;;;21.50;102300.00;;;;2100521;28;20222;-65
2021/12/16 05:12:17;;;;;;;28.83;24.33;;;;;21.50;102305.00;;;;2100879;28;20204;-65
2021/12/16 05:13:19;;;;;;;27.13;24.27;;;;;21.50;102310.00;;;;2091826;28;20331;-65
2021/12/16 05:14:20;;;;;;;27.02;24.13;;;;;21.50;102301.00;;;;2091564;28;20228;-65
2021/12/16 05:15:23;;;;;;;27.10;24.13;;;;;21.50;102311.00;;;;2100438;28;20219;-64
2021/12/16 05:16:23;;;;;;;27.27;24.38;;;;;21.50;102306.00;;;;2102593;28;20215;-65
2021/12/16 05:17:36;;;;;;;26.13;23.50;;;;;21.50;102306.00;;;;2100685;28;20695;-65
2021/12/16 05:18:37;;;;;;;27.42;24.40;;;;;21.50;102304.00;;;;2096458;28;20207;-65
2021/12/16 05:19:40;;;;;;;27.77;24.10;;;;;21.50;102308.00;;;;2100509;28;20212;-65
2021/12/16 05:20:43;;;;;;;27.60;24.55;;;;;21.50;102305.00;;;;2099916;28;20303;-64
2021/12/16 05:25:54;;;;;;;27.83;24.83;;;;;21.50;102308.00;;;;2074451;28;20218;-65
2021/12/16 05:27:00;;;;;;;27.52;24.58;;;;;21.40;102313.00;;;;2096789;28;20237;-64
2021/12/16 05:28:00;;;;;;;28.13;25.00;;;;;21.40;102314.00;;;;2091288;28;20212;-65
2021/12/16 05:29:00;;;;;;;27.40;24.53;;;;;21.40;102317.00;;;;2091585;28;20704;-64
2021/12/16 05:30:01;;;;;;;27.07;24.27;;;;;21.40;102321.00;;;;2100377;28;20262;-65
2021/12/16 05:31:02;;;;;;;27.70;24.73;;;;;21.40;102321.00;;;;2099969;28;20204;-65
2021/12/16 05:32:02;;;;;;;28.37;25.07;;;;;21.40;102320.00;;;;2100476;28;20215;-65
2021/12/16 05:33:03;;;;;;;28.53;25.50;;;;;21.40;102327.00;;;;2100705;28;20482;-65
2021/12/16 05:34:04;;;;;;;29.10;25.80;;;;;21.40;102323.00;;;;2100847;28;20208;-65
2021/12/16 05:35:04;;;;;;;29.60;26.47;;;;;21.40;102329.00;;;;2091814;28;20209;-64
2021/12/16 05:36:05;;;;;;;28.27;24.70;;;;;21.40;102326.00;;;;2091797;28;20208;-64
2021/12/16 05:37:07;;;;;;;27.60;24.60;;;;;21.40;102334.00;;;;2100595;28;20578;-65
2021/12/16 05:38:07;;;;;;;28.15;25.23;;;;;21.40;102331.00;;;;2100071;28;20204;-64
2021/12/16 05:39:09;;;;;;;26.63;23.83;;;;;21.40;102334.00;;;;2091639;28;20205;-64
2021/12/16 05:40:11;;;;;;;28.38;24.90;;;;;21.40;102323.00;;;;2091844;28;20305;-65
2021/12/16 05:41:13;;;;;;;27.52;24.63;;;;;21.40;102339.00;;;;2100099;28;20344;-65
2021/12/16 05:42:13;;;;;;;28.65;25.38;;;;;21.40;102342.00;;;;2091339;28;20275;-65
2021/12/16 05:43:15;;;;;;;29.60;25.80;;;;;21.40;102341.00;;;;2091508;28;20208;-64
2021/12/16 05:44:15;;;;;;;28.95;25.85;;;;;21.40;102344.00;;;;2100266;28;20212;-65
2021/12/16 05:45:15;;;;;;;28.07;24.90;;;;;21.40;102340.00;;;;2100194;28;20219;-65
2021/12/16 05:46:17;;;;;;;27.20;24.37;;;;;21.40;102352.00;;;;2100250;28;20203;-64
2021/12/16 05:47:17;;;;;;;30.38;26.98;;;;;21.40;102341.00;;;;2100006;28;20212;-65
2021/12/16 05:48:21;;;;;;;28.17;24.73;;;;;21.40;102341.00;;;;2099916;28;20261;-65
2021/12/16 05:49:21;;;;;;;28.15;25.05;;;;;21.40;102341.00;;;;2099984;28;20291;-64
2021/12/16 05:50:22;;;;;;;31.27;26.27;;;;;21.40;102350.00;;;;2099519;28;20204;-65
2021/12/16 05:51:27;;;;;;;28.93;25.90;;;;;21.40;102347.00;;;;2099754;28;20227;-65
2021/12/16 05:52:28;;;;;;;29.50;26.40;;;;;21.40;102347.00;;;;2099768;28;20214;-65
2021/12/16 05:53:28;;;;;;;28.37;25.30;;;;;21.40;102344.00;;;;2099895;28;20203;-64
2021/12/16 05:54:28;;;;;;;27.20;23.70;;;;;21.40;102344.00;;;;2099638;28;20216;-64
2021/12/16 05:55:29;;;;;;;28.33;25.33;;;;;21.40;102342.00;;;;2099714;28;20362;-65
2021/12/16 05:56:29;;;;;;;28.57;25.57;;;;;21.40;102348.00;;;;2100019;28;20245;-65
2021/12/16 05:57:29;;;;;;;26.20;23.53;;;;;21.40;102348.00;;;;2099729;28;20220;-65
2021/12/16 05:58:30;;;;;;;27.70;24.70;;;;;21.40;102353.00;;;;2094735;28;20212;-64
2021/12/16 05:59:30;;;;;;;26.93;24.07;;;;;21.30;102357.00;;;;2091314;28;20671;-66
2021/12/16 06:00:33;;;;;;;25.70;23.10;;;;;21.30;102347.00;;;;2098833;28;20218;-67
2021/12/16 06:01:35;;;;;;;27.95;25.05;;;;;21.30;102353.00;;;;2090842;28;20265;-65
2021/12/16 06:02:35;;;;;;;27.00;23.85;;;;;21.20;102357.00;;;;2090821;28;20243;-65
2021/12/16 06:03:35;;;;;;;26.63;23.67;;;;;21.30;102363.00;;;;2099811;28;20200;-65
2021/12/16 06:04:36;;;;;;;25.30;22.60;;;;;21.30;102357.00;;;;2090822;28;20270;-65
2021/12/16 06:05:36;;;;;;;25.53;22.77;;;;;21.40;102355.00;;;;2090847;28;20240;-65
2021/12/16 06:06:37;;;;;;;26.00;23.00;;;;;21.40;102366.00;;;;2099426;28;20702;-65
2021/12/16 06:07:37;;;;;;;28.93;25.70;;;;;21.50;102367.00;;;;2091660;28;20556;-65
2021/12/16 06:08:38;;;;;;;24.97;22.30;;;;;21.40;102367.00;;;;2091048;28;20986;-63
2021/12/16 06:09:38;;;;;;;27.07;24.10;;;;;21.40;102363.00;;;;2094464;28;20666;-64
2021/12/16 06:11:57;;;;;;;26.83;24.05;;;;;21.40;102365.00;;;;2104023;28;20219;-65
2021/12/16 06:12:57;;;;;;;27.07;24.20;;;;;21.50;102366.00;;;;2090868;28;20251;-65
2021/12/16 06:14:21;;;;;;;25.20;22.53;;;;;21.50;102373.00;;;;2090894;28;20279;-65
2021/12/16 06:15:39;;;;;;;25.27;22.58;;;;;21.50;102372.00;;;;2086804;28;20212;-64
2021/12/16 06:27:06;;;;;;;20.92;18.73;;;;;21.50;102372.00;;;;2094932;28;20842;-65
2021/12/16 06:28:08;;;;;;;21.70;19.40;;;;;21.50;102373.00;;;;2100098;28;20215;-65
2021/12/16 06:29:08;;;;;;;22.67;19.95;;;;;21.60;102378.00;;;;2090776;28;20233;-65
2021/12/16 06:30:10;;;;;;;22.37;20.10;;;;;21.60;102374.00;;;;2091296;28;20209;-65
2021/12/16 06:31:11;;;;;;;21.67;19.40;;;;;21.60;102374.00;;;;2099726;28;20303;-66
2021/12/16 06:32:12;;;;;;;22.23;19.83;;;;;21.60;102388.00;;;;2096336;28;20214;-65
2021/12/16 06:33:18;;;;;;;21.23;19.13;;;;;21.60;102385.00;;;;2100517;28;20225;-65
2021/12/16 06:34:18;;;;;;;24.38;19.17;;;;;21.60;102387.00;;;;2092090;28;20220;-65
2021/12/16 06:35:18;;;;;;;21.60;19.43;;;;;21.60;102386.00;;;;2092358;28;20262;-64
2021/12/16 06:36:19;;;;;;;22.10;19.70;;;;;21.60;102387.00;;;;2101344;28;20208;-64
2021/12/16 06:37:19;;;;;;;22.60;19.73;;;;;21.60;102392.00;;;;2101252;28;20216;-64
2021/12/16 06:38:20;;;;;;;23.20;19.47;;;;;21.60;102377.00;;;;2101263;28;20219;-63
2021/12/16 06:39:21;;;;;;;20.90;18.63;;;;;21.60;102385.00;;;;2101118;28;20224;-64
2021/12/16 06:40:21;;;;;;;22.87;18.90;;;;;21.60;102387.00;;;;2105194;28;20239;-63
2021/12/16 06:41:21;;;;;;;20.77;18.67;;;;;21.70;102385.00;;;;2100586;28;20241;-63
2021/12/16 06:42:23;;;;;;;22.17;19.93;;;;;21.70;102383.00;;;;2099272;28;20569;-64
2021/12/16 06:43:24;;;;;;;23.30;20.85;;;;;21.70;102378.00;;;;2101101;28;20290;-64
2021/12/16 06:44:32;;;;;;;22.43;18.83;;;;;21.70;102385.00;;;;2100970;28;20211;-64
2021/12/16 06:45:36;;;;;;;22.85;20.45;;;;;21.70;102385.00;;;;2101107;28;20220;-64
2021/12/16 06:46:39;;;;;;;21.92;19.55;;;;;21.70;102393.00;;;;2097293;28;20211;-64
2021/12/16 06:47:51;;;;;;;24.70;21.42;;;;;21.70;102390.00;;;;2100655;28;20212;-64
2021/12/16 06:48:57;;;;;;;21.80;19.50;;;;;21.70;102401.00;;;;2101067;28;20212;-64
2021/12/16 06:49:57;;;;;;;21.65;19.35;;;;;21.70;102394.00;;;;2101500;28;20215;-64
2021/12/16 06:51:07;;;;;;;20.27;18.17;;;;;21.70;102399.00;;;;2092274;28;20221;-64
2021/12/16 06:52:11;;;;;;;26.48;22.27;;;;;21.70;102383.00;;;;2085712;28;20693;-63
2021/12/16 06:53:14;;;;;;;24.48;21.92;;;;;21.70;102396.00;;;;2092174;28;20273;-63
2021/12/16 06:54:23;;;;;;;22.38;18.73;;;;;21.70;102394.00;;;;2092902;28;20734;-64
2021/12/16 06:55:34;;;;;;;24.73;22.15;;;;;21.70;102389.00;;;;2098346;28;20210;-64
2021/12/16 06:56:49;;;;;;;28.60;24.30;;;;;21.80;102396.00;;;;2101169;28;20205;-64
2021/12/16 06:57:54;;;;;;;21.73;19.38;;;;;21.80;102395.00;;;;2098203;28;20227;-64
2021/12/16 06:59:11;;;;;;;22.23;19.88;;;;;21.80;102394.00;;;;2099492;28;20707;-64
2021/12/16 07:00:21;;;;;;;29.48;24.40;;;;;21.80;102395.00;;;;2089275;28;20211;-64
2021/12/16 07:03:00;;;;;;;26.83;24.00;;;;;21.80;102406.00;;;;2066875;28;20563;-63
2021/12/16 07:04:00;;;;;;;32.22;27.70;;;;;21.80;102398.00;;;;2067765;28;20252;-64
2021/12/16 07:05:00;;;;;;;36.43;30.50;;;;;21.80;102408.00;;;;2098438;28;20222;-64
2021/12/16 07:06:01;;;;;;;39.97;32.50;;;;;21.80;102408.00;;;;2101384;28;20212;-64
2021/12/16 07:07:01;;;;;;;33.63;29.97;;;;;21.80;102411.00;;;;2101495;28;20212;-64
2021/12/16 07:08:03;;;;;;;39.10;31.73;;;;;21.80;102408.00;;;;2101575;28;20678;-64
2021/12/16 07:09:13;;;;;;;50.45;41.33;;;;;21.80;102404.00;;;;2101423;28;20454;-64
2021/12/16 07:10:13;;;;;;;35.95;30.45;;;;;21.80;102414.00;;;;2079808;28;20647;-64
2021/12/16 07:11:14;;;;;;;43.50;36.00;;;;;21.80;102412.00;;;;2084773;28;20299;-63
2021/12/16 07:12:14;;;;;;;34.60;30.77;;;;;21.80;102413.00;;;;2101350;28;20705;-64
2021/12/16 07:13:28;;;;;;;35.40;30.90;;;;;21.90;102408.00;;;;2101104;28;20207;-64
2021/12/16 07:14:37;;;;;;;38.40;32.47;;;;;21.90;102413.00;;;;2092457;28;20303;-64
2021/12/16 07:15:37;;;;;;;39.13;32.67;;;;;21.90;102414.00;;;;2095919;28;20243;-64
2021/12/16 07:16:38;;;;;;;45.60;38.50;;;;;21.90;102415.00;;;;2092720;28;20745;-64
2021/12/16 07:17:39;;;;;;;42.10;36.23;;;;;21.90;102420.00;;;;2092783;28;20209;-63
2021/12/16 07:18:39;;;;;;;43.80;37.03;;;;;21.90;102414.00;;;;2092113;28;20216;-63
2021/12/16 07:19:40;;;;;;;51.37;41.80;;;;;21.90;102424.00;;;;2092799;28;20262;-64
2021/12/16 07:20:40;;;;;;;44.53;37.37;;;;;21.90;102426.00;;;;2101430;28;20926;-63
2021/12/16 07:21:41;;;;;;;48.10;40.00;;;;;21.90;102437.00;;;;2101631;28;20640;-64
2021/12/16 07:22:41;;;;;;;46.07;40.50;;;;;21.90;102433.00;;;;2097412;28;20211;-63
2021/12/16 07:23:42;;;;;;;46.87;38.67;;;;;21.90;102431.00;;;;2101020;28;20974;-63